Time;durP1;ratioP1;P1;durP2;ratioP2;P2;SDS_P1;SDS_P2;PMS_P1;PMS_P2;Temp;Humidity;BMP_temperature;BMP_pressure;BME280_temperature;BME280_humidity;BME280_pressure;Samples;Min_cycle;Max_cycle;Signal;HPM_P1;HPM_P2
2021/11/02 05:07:27;;;;;;;8.70;5.07;;;6.70;99.90;;;;;;4971995;28;20583;-71
2021/11/02 05:49:11;;;;;;;5.85;4.50;;;6.50;99.90;;;;;;4946254;29;20983;-70
2021/11/02 05:57:12;;;;;;;5.75;5.15;;;6.50;99.90;;;;;;4937653;29;20197;-71
2021/11/02 05:59:41;;;;;;;9.25;5.63;;;6.50;99.90;;;;;;4934730;29;20603;-72
2021/11/02 06:02:23;;;;;;;7.20;5.80;;;6.50;99.90;;;;;;4940524;29;20714;-71
2021/11/02 06:05:08;;;;;;;6.50;5.90;;;6.40;99.90;;;;;;4955808;28;20261;-71
2021/11/02 06:07:53;;;;;;;5.72;5.13;;;6.40;99.90;;;;;;4936521;29;20288;-71
2021/11/02 06:10:50;;;;;;;6.65;5.95;;;6.40;99.90;;;;;;4923970;29;20267;-71
2021/11/02 06:30:09;;;;;;;6.97;5.70;;;6.30;99.90;;;;;;4946035;29;20729;-71
2021/11/02 06:32:39;;;;;;;6.05;5.55;;;6.30;99.90;;;;;;4937009;29;20269;-70
2021/11/02 06:35:14;;;;;;;8.30;5.28;;;6.30;99.90;;;;;;4947642;29;20557;-70
2021/11/02 06:38:01;;;;;;;9.23;5.93;;;6.30;99.90;;;;;;4955962;28;20599;-71
2021/11/02 06:43:35;;;;;;;5.47;4.97;;;6.30;99.90;;;;;;4927457;29;20220;-70
2021/11/02 06:49:02;;;;;;;132.18;61.83;;;6.30;99.90;;;;;;4915653;29;20292;-72
2021/11/02 06:54:40;;;;;;;22.05;15.50;;;6.30;99.90;;;;;;4924872;29;20661;-71
2021/11/02 07:17:20;;;;;;;16.88;12.02;;;6.50;99.90;;;;;;4936848;29;20272;-72
2021/11/02 07:19:57;;;;;;;15.68;12.13;;;6.60;99.90;;;;;;4916243;29;20199;-70
2021/11/02 07:22:42;;;;;;;7.95;7.25;;;6.50;99.90;;;;;;4933712;29;20234;-70
2021/11/02 07:25:21;;;;;;;7.55;6.15;;;6.60;99.90;;;;;;4949127;29;20264;-69
2021/11/02 07:28:09;;;;;;;6.88;6.30;;;6.60;99.90;;;;;;4934910;28;20340;-70
2021/11/02 08:45:56;;;;;;;6.10;5.70;;;8.30;99.90;;;;;;4933080;29;20489;-70
2021/11/02 08:48:27;;;;;;;7.30;6.60;;;8.40;99.90;;;;;;4931901;29;21465;-71
2021/11/02 08:50:55;;;;;;;6.38;5.78;;;8.40;99.90;;;;;;4928200;29;20280;-70
2021/11/02 08:53:25;;;;;;;5.13;4.93;;;8.40;99.90;;;;;;4934327;29;20602;-71
2021/11/02 08:55:53;;;;;;;6.70;6.05;;;8.30;99.90;;;;;;4943721;29;20197;-70
2021/11/02 08:58:22;;;;;;;8.07;5.35;;;8.30;99.90;;;;;;4935887;28;20266;-71
2021/11/02 09:00:49;;;;;;;7.22;5.10;;;8.30;99.90;;;;;;4933898;29;20225;-71
2021/11/02 09:03:20;;;;;;;6.30;5.18;;;8.30;99.90;;;;;;4925121;29;20211;-71
2021/11/02 09:05:51;;;;;;;9.30;7.90;;;8.30;99.90;;;;;;4930682;28;20228;-71
2021/11/02 09:08:20;;;;;;;11.95;8.75;;;8.40;99.90;;;;;;4945956;29;20299;-71
2021/11/02 09:10:49;;;;;;;8.80;6.72;;;8.40;99.90;;;;;;4932522;29;20301;-71
2021/11/02 09:13:17;;;;;;;9.43;8.52;;;8.50;99.90;;;;;;4929077;29;20206;-71
2021/11/02 09:15:47;;;;;;;5.47;4.93;;;8.60;99.90;;;;;;4934015;29;20285;-72
2021/11/02 09:18:14;;;;;;;6.75;4.50;;;8.70;99.90;;;;;;4935299;29;20323;-71
2021/11/02 09:20:41;;;;;;;5.50;4.88;;;8.70;99.90;;;;;;4932641;29;20740;-70
2021/11/02 09:23:09;;;;;;;4.78;4.50;;;8.90;99.90;;;;;;4932898;29;20213;-72
2021/11/02 09:25:36;;;;;;;4.63;4.32;;;9.00;99.90;;;;;;4937046;29;20201;-71
2021/11/02 09:28:05;;;;;;;5.40;4.90;;;9.10;99.90;;;;;;4936245;29;20628;-69
2021/11/02 09:30:33;;;;;;;5.28;4.88;;;9.20;99.90;;;;;;4933237;29;20640;-71
2021/11/02 09:33:00;;;;;;;4.22;3.80;;;9.30;99.90;;;;;;4933519;29;20220;-71
2021/11/02 09:35:32;;;;;;;4.13;3.83;;;9.40;99.90;;;;;;4933878;29;20218;-70
2021/11/02 09:38:16;;;;;;;4.60;3.90;;;9.50;99.90;;;;;;4937011;28;20515;-71
2021/11/02 09:41:15;;;;;;;6.72;3.83;;;9.60;99.90;;;;;;4933083;29;20233;-70
2021/11/02 09:44:11;;;;;;;4.43;4.03;;;9.70;99.90;;;;;;4933429;29;20242;-71
2021/11/02 09:47:25;;;;;;;4.32;3.38;;;9.80;99.90;;;;;;4936551;29;20241;-70
2021/11/02 09:50:14;;;;;;;9.82;3.65;;;9.90;99.90;;;;;;4932273;29;20209;-70
2021/11/02 09:53:14;;;;;;;5.18;4.65;;;10.10;99.90;;;;;;4914017;29;20246;-70
2021/11/02 09:55:59;;;;;;;4.07;3.75;;;10.20;99.90;;;;;;4948805;29;20209;-69
2021/11/02 09:58:59;;;;;;;7.45;6.18;;;10.20;99.90;;;;;;4934847;28;20273;-70
2021/11/02 10:01:42;;;;;;;3.80;3.42;;;10.30;99.90;;;;;;4916496;29;20241;-69
2021/11/02 10:04:45;;;;;;;3.60;3.40;;;10.30;99.90;;;;;;4933976;29;20218;-71
2021/11/02 10:07:48;;;;;;;7.00;3.70;;;10.40;99.90;;;;;;4931900;29;20213;-70
2021/11/02 10:10:17;;;;;;;5.55;5.00;;;10.50;99.90;;;;;;4933118;29;20233;-70
2021/11/02 10:12:58;;;;;;;3.75;3.60;;;10.50;99.90;;;;;;4933421;29;20742;-70
2021/11/02 10:15:42;;;;;;;4.25;3.45;;;10.60;99.90;;;;;;4933424;29;20577;-71
2021/11/02 10:18:36;;;;;;;3.80;3.40;;;10.70;99.90;;;;;;4932248;29;20214;-71
2021/11/02 10:21:38;;;;;;;11.30;6.97;;;10.80;99.90;;;;;;4914501;29;20336;-72
2021/11/02 10:24:35;;;;;;;26.42;19.10;;;10.80;99.90;;;;;;4911348;29;20659;-71
2021/11/02 10:27:27;;;;;;;17.30;8.50;;;11.00;99.90;;;;;;4920425;29;20258;-71
2021/11/02 10:30:32;;;;;;;2.87;2.67;;;11.10;99.90;;;;;;4933295;29;20450;-70
2021/11/02 10:33:04;;;;;;;5.50;3.03;;;11.10;99.90;;;;;;4935079;29;20668;-70
2021/11/02 10:35:41;;;;;;;3.57;3.27;;;11.20;99.90;;;;;;4946057;29;20472;-70
2021/11/02 10:38:10;;;;;;;3.10;2.90;;;11.30;99.90;;;;;;4941373;28;20465;-72
2021/11/02 10:40:47;;;;;;;5.40;3.10;;;11.40;99.90;;;;;;4938883;29;20482;-71
2021/11/02 10:43:43;;;;;;;4.57;2.80;;;11.40;99.90;;;;;;4955355;28;20508;-71
2021/11/02 10:46:11;;;;;;;4.07;3.00;;;11.40;99.90;;;;;;4951822;28;20456;-71
2021/11/02 10:48:42;;;;;;;3.17;2.95;;;11.30;99.90;;;;;;4936554;28;20216;-71
2021/11/02 10:51:23;;;;;;;3.37;3.27;;;11.30;99.90;;;;;;4935988;29;20320;-70
2021/11/02 10:53:58;;;;;;;5.43;3.10;;;11.30;99.90;;;;;;4935478;29;20492;-70
2021/11/02 10:56:38;;;;;;;3.25;3.05;;;11.30;99.90;;;;;;4936518;29;20264;-70
2021/11/02 10:59:10;;;;;;;7.93;3.13;;;11.30;99.90;;;;;;4955214;28;20240;-70
2021/11/02 11:01:38;;;;;;;5.05;4.65;;;11.30;99.90;;;;;;4955307;28;20233;-70
2021/11/02 11:04:09;;;;;;;11.55;10.02;;;11.30;99.90;;;;;;4955105;28;20261;-70
2021/11/02 11:06:42;;;;;;;3.45;3.15;;;11.30;99.90;;;;;;4941634;29;20210;-70
2021/11/02 11:09:11;;;;;;;4.10;3.35;;;11.40;99.90;;;;;;4935687;29;20277;-70
2021/11/02 11:11:44;;;;;;;3.30;2.97;;;11.40;99.90;;;;;;4936071;29;20305;-70
2021/11/02 11:14:14;;;;;;;4.93;2.80;;;11.40;99.90;;;;;;4935906;29;20240;-70
2021/11/02 11:16:47;;;;;;;5.10;2.90;;;11.40;99.90;;;;;;4936651;29;20281;-71
2021/11/02 11:19:19;;;;;;;6.13;3.63;;;11.50;99.90;;;;;;4935436;29;20225;-70
2021/11/02 11:21:47;;;;;;;3.00;2.80;;;11.50;99.90;;;;;;4936012;29;20702;-71
2021/11/02 11:24:18;;;;;;;3.33;3.05;;;11.50;99.90;;;;;;4935322;29;20237;-71
2021/11/02 11:26:49;;;;;;;3.80;3.05;;;11.60;99.90;;;;;;4937206;29;20245;-71
2021/11/02 11:29:20;;;;;;;2.85;2.72;;;11.60;99.90;;;;;;4954444;28;20213;-71
2021/11/02 11:31:49;;;;;;;6.22;2.80;;;11.60;99.90;;;;;;4954567;28;20324;-71
2021/11/02 11:34:17;;;;;;;5.25;3.05;;;11.60;99.90;;;;;;4954142;28;20311;-72
2021/11/02 11:36:50;;;;;;;4.00;2.50;;;11.70;99.90;;;;;;4953351;28;20378;-71
2021/11/02 11:39:22;;;;;;;4.97;4.50;;;11.70;99.90;;;;;;4929917;29;20214;-73
2021/11/02 11:41:51;;;;;;;3.10;2.95;;;11.70;99.90;;;;;;4935549;29;20255;-72
2021/11/02 11:44:19;;;;;;;4.78;4.05;;;11.80;99.90;;;;;;4934266;29;20213;-71
2021/11/02 11:46:47;;;;;;;3.47;3.20;;;11.90;99.90;;;;;;4935325;29;20209;-71
2021/11/02 11:49:23;;;;;;;3.40;2.73;;;12.00;99.90;;;;;;4933928;29;20214;-71
2021/11/02 11:51:57;;;;;;;8.40;2.83;;;12.10;99.90;;;;;;4935092;29;20497;-71
2021/11/02 11:54:28;;;;;;;5.43;4.30;;;12.10;99.90;;;;;;4935108;29;20466;-71
2021/11/02 11:56:59;;;;;;;5.07;3.80;;;12.10;99.90;;;;;;4937207;29;20419;-71
2021/11/02 11:59:27;;;;;;;4.30;3.90;;;12.20;99.90;;;;;;4954361;28;20220;-71
2021/11/02 12:01:58;;;;;;;6.13;3.73;;;12.20;99.90;;;;;;4954157;28;20492;-72
2021/11/02 12:04:34;;;;;;;3.67;2.65;;;12.20;99.90;;;;;;4954067;28;20524;-72
2021/11/02 12:07:08;;;;;;;5.85;2.72;;;12.20;99.90;;;;;;4951747;28;20572;-72
2021/11/02 12:09:41;;;;;;;3.80;3.50;;;12.20;99.90;;;;;;4934650;29;20705;-72
2021/11/02 12:12:09;;;;;;;2.73;2.53;;;12.30;99.90;;;;;;4935637;29;20532;-71
2021/11/02 12:14:43;;;;;;;2.90;2.47;;;12.40;99.90;;;;;;4935109;29;20474;-72
2021/11/02 12:17:17;;;;;;;3.20;3.10;;;12.50;99.90;;;;;;4940478;29;20826;-71
2021/11/02 12:19:55;;;;;;;2.83;2.60;;;12.60;99.90;;;;;;4934221;29;20896;-72
2021/11/02 12:22:33;;;;;;;6.03;3.20;;;12.70;99.90;;;;;;4934782;29;20630;-72
2021/11/02 12:25:08;;;;;;;3.67;3.23;;;12.70;99.90;;;;;;4934600;29;20832;-71
2021/11/02 12:27:40;;;;;;;3.37;3.17;;;12.70;99.90;;;;;;4934327;29;20496;-71
2021/11/02 12:30:09;;;;;;;4.97;4.30;;;12.70;99.90;;;;;;4934227;29;20470;-71
2021/11/02 12:32:39;;;;;;;4.53;4.33;;;12.70;99.90;;;;;;4934043;29;20863;-71
2021/11/02 12:35:19;;;;;;;3.63;3.43;;;12.60;99.90;;;;;;4933640;29;20475;-72
2021/11/02 12:37:54;;;;;;;4.10;3.83;;;12.60;99.90;;;;;;4941256;29;20464;-71
2021/11/02 12:40:23;;;;;;;10.30;4.07;;;12.60;99.90;;;;;;4940527;28;20572;-71
2021/11/02 12:42:49;;;;;;;4.20;3.80;;;12.50;99.90;;;;;;4934296;29;20465;-71
2021/11/02 12:45:19;;;;;;;3.65;3.35;;;12.50;99.90;;;;;;4934138;29;20505;-71
2021/11/02 12:47:47;;;;;;;3.80;3.20;;;12.50;99.90;;;;;;4941104;29;20329;-71
2021/11/02 12:50:16;;;;;;;4.27;3.90;;;12.40;99.90;;;;;;4953035;28;20472;-70
2021/11/02 12:52:44;;;;;;;3.83;3.63;;;12.50;99.90;;;;;;4952926;28;20842;-70
2021/11/02 12:55:14;;;;;;;4.57;4.17;;;12.50;99.90;;;;;;4953012;28;20861;-70
2021/11/02 12:57:42;;;;;;;4.37;3.93;;;12.40;99.90;;;;;;4946410;28;20488;-69
2021/11/02 13:00:11;;;;;;;3.83;3.53;;;12.30;99.90;;;;;;4934131;29;20492;-70
2021/11/02 13:02:40;;;;;;;3.00;2.90;;;12.20;99.90;;;;;;4934314;29;20691;-72
2021/11/02 13:05:13;;;;;;;2.75;2.65;;;12.20;99.90;;;;;;4933893;29;20213;-71
2021/11/02 13:07:43;;;;;;;2.73;2.63;;;12.20;99.90;;;;;;4927967;29;20682;-70
2021/11/02 13:10:17;;;;;;;2.78;2.53;;;12.20;99.90;;;;;;4938423;29;20998;-70
2021/11/02 13:12:48;;;;;;;3.72;3.42;;;12.20;99.90;;;;;;4933613;29;20233;-70
2021/11/02 13:15:15;;;;;;;3.25;3.03;;;12.20;99.90;;;;;;4934165;29;20320;-71
2021/11/02 13:17:47;;;;;;;3.97;3.25;;;12.20;99.90;;;;;;4939263;29;20202;-71
2021/11/02 13:20:26;;;;;;;3.67;2.63;;;12.30;99.90;;;;;;4948782;28;20214;-70
2021/11/02 13:22:54;;;;;;;3.37;3.17;;;12.40;99.90;;;;;;4938405;28;20210;-71
2021/11/02 13:25:25;;;;;;;5.18;3.42;;;12.60;99.90;;;;;;4914633;29;20470;-71
2021/11/02 13:27:55;;;;;;;4.50;2.73;;;12.60;99.90;;;;;;4926294;29;20201;-70
2021/11/02 13:30:33;;;;;;;4.60;4.03;;;12.60;99.90;;;;;;4933218;29;20466;-70
2021/11/02 13:33:03;;;;;;;4.50;4.00;;;12.60;99.90;;;;;;4933435;29;20861;-71
2021/11/02 13:35:38;;;;;;;3.20;3.10;;;12.60;99.90;;;;;;4933768;29;20520;-71
2021/11/02 13:38:31;;;;;;;4.30;4.00;;;12.60;99.90;;;;;;4934868;29;20473;-71
2021/11/02 13:41:02;;;;;;;4.60;4.30;;;12.50;99.90;;;;;;4919752;29;20492;-71
2021/11/02 13:43:30;;;;;;;6.13;4.23;;;12.50;99.90;;;;;;4933786;29;20465;-71
2021/11/02 13:45:58;;;;;;;4.83;4.33;;;12.50;99.90;;;;;;4951435;29;20461;-72
2021/11/02 13:48:26;;;;;;;5.30;4.90;;;12.50;99.90;;;;;;4941544;28;20492;-71
2021/11/02 13:50:54;;;;;;;5.73;3.50;;;12.50;99.90;;;;;;4933907;29;20777;-71
2021/11/02 13:53:21;;;;;;;6.07;5.57;;;12.50;99.90;;;;;;4932519;29;20489;-69
2021/11/02 13:55:48;;;;;;;4.00;3.70;;;12.50;99.90;;;;;;4946793;29;20465;-72
2021/11/02 13:58:16;;;;;;;5.63;5.23;;;12.50;99.90;;;;;;4942752;28;20830;-71
2021/11/02 14:00:45;;;;;;;4.33;4.00;;;12.50;99.90;;;;;;4933460;29;20497;-71
2021/11/02 14:03:15;;;;;;;3.80;3.50;;;12.40;99.90;;;;;;4933418;29;20499;-71
2021/11/02 14:05:44;;;;;;;5.10;2.87;;;12.40;99.90;;;;;;4933217;29;20835;-71
2021/11/02 14:08:12;;;;;;;3.60;3.10;;;12.40;99.90;;;;;;4943000;29;20465;-70
2021/11/02 14:10:38;;;;;;;3.43;3.30;;;12.30;99.90;;;;;;4918439;29;20828;-71
2021/11/02 14:13:05;;;;;;;3.67;3.10;;;12.30;99.90;;;;;;4943888;29;20488;-71
2021/11/02 14:15:33;;;;;;;5.37;4.40;;;12.30;99.90;;;;;;4938754;28;20473;-72
2021/11/02 14:18:11;;;;;;;3.93;3.80;;;12.30;99.90;;;;;;4948117;29;20472;-71
2021/11/02 14:20:40;;;;;;;2.95;2.85;;;12.30;99.90;;;;;;4936624;28;20489;-72
2021/11/02 14:23:08;;;;;;;5.80;2.83;;;12.30;99.90;;;;;;4936941;29;20316;-72
2021/11/02 14:25:36;;;;;;;3.80;3.40;;;12.30;99.90;;;;;;4943941;29;20460;-71
2021/11/02 14:28:04;;;;;;;4.77;3.00;;;12.30;99.90;;;;;;4938029;28;20468;-69
2021/11/02 14:30:42;;;;;;;3.57;3.40;;;12.30;99.90;;;;;;4938891;29;20461;-71
2021/11/02 14:33:10;;;;;;;5.27;3.57;;;12.20;99.90;;;;;;4938505;29;20481;-70
2021/11/02 14:35:45;;;;;;;4.20;3.80;;;12.20;99.90;;;;;;4932224;29;20476;-70
2021/11/02 14:38:13;;;;;;;3.43;3.23;;;12.20;99.90;;;;;;4943947;29;20993;-70
2021/11/02 14:40:41;;;;;;;3.70;3.50;;;12.20;99.90;;;;;;4944820;29;20483;-70
2021/11/02 14:43:31;;;;;;;3.73;3.40;;;12.20;99.90;;;;;;4936584;29;20473;-70
2021/11/02 14:46:03;;;;;;;3.90;3.60;;;12.20;99.90;;;;;;4936310;29;20458;-70
2021/11/02 14:48:41;;;;;;;3.30;3.10;;;12.10;99.90;;;;;;4936139;28;20457;-70
2021/11/02 14:51:22;;;;;;;4.00;3.60;;;12.10;99.90;;;;;;4943032;29;20564;-70
2021/11/02 14:53:50;;;;;;;6.40;5.70;;;12.10;99.90;;;;;;4936328;29;20461;-71
2021/11/02 14:56:30;;;;;;;4.57;4.17;;;12.10;99.90;;;;;;4944734;29;20462;-70
2021/11/02 14:58:57;;;;;;;5.53;4.40;;;12.10;99.90;;;;;;4955166;28;20464;-71
2021/11/02 15:01:53;;;;;;;2.83;2.70;;;12.10;99.90;;;;;;4943698;28;20860;-70
2021/11/02 15:04:20;;;;;;;6.75;4.65;;;12.00;99.90;;;;;;4935716;29;20882;-70
2021/11/02 15:06:53;;;;;;;4.10;3.90;;;12.00;99.90;;;;;;4937611;29;20585;-71
2021/11/02 15:09:22;;;;;;;3.95;3.60;;;12.00;99.90;;;;;;4948411;29;20248;-71
2021/11/02 15:11:50;;;;;;;4.13;2.90;;;12.00;99.90;;;;;;4942410;28;20600;-71
2021/11/02 15:14:18;;;;;;;3.72;3.53;;;11.90;99.90;;;;;;4937845;29;20871;-71
2021/11/02 15:16:48;;;;;;;2.88;2.67;;;11.90;99.90;;;;;;4943293;28;20210;-72
2021/11/02 15:19:16;;;;;;;2.92;2.83;;;11.80;99.90;;;;;;4935009;29;20213;-72
2021/11/02 15:21:45;;;;;;;2.90;2.80;;;11.70;99.90;;;;;;4940758;29;21047;-72
2021/11/02 15:24:20;;;;;;;3.40;3.20;;;11.70;99.90;;;;;;4942181;28;21464;-73
2021/11/02 15:26:50;;;;;;;4.70;3.75;;;11.60;99.90;;;;;;4947634;29;20219;-73
2021/11/02 15:29:19;;;;;;;3.72;3.53;;;11.60;99.90;;;;;;4942804;28;20205;-71
2021/11/02 15:32:04;;;;;;;5.72;3.83;;;11.50;99.90;;;;;;4946909;29;20229;-72
2021/11/02 15:34:46;;;;;;;4.68;4.38;;;11.50;99.90;;;;;;4937829;28;20220;-72
2021/11/02 15:37:15;;;;;;;4.70;4.40;;;11.40;99.90;;;;;;4951034;29;20304;-72
2021/11/02 15:39:43;;;;;;;5.60;5.30;;;11.30;99.90;;;;;;4941176;28;20209;-72
2021/11/02 15:42:28;;;;;;;6.70;6.13;;;11.30;99.90;;;;;;4947379;28;20214;-72
2021/11/02 15:44:56;;;;;;;11.75;7.85;;;11.20;99.90;;;;;;4943463;29;20556;-72
2021/11/02 15:47:26;;;;;;;12.85;9.40;;;11.20;99.90;;;;;;4956439;28;20336;-73
2021/11/02 15:49:55;;;;;;;12.55;7.93;;;11.10;99.90;;;;;;4946704;28;20202;-71
2021/11/02 15:52:22;;;;;;;8.32;7.38;;;11.10;99.90;;;;;;4930903;29;20266;-71
2021/11/02 15:54:49;;;;;;;7.03;6.53;;;11.10;99.90;;;;;;4940079;28;20237;-72
2021/11/02 15:57:15;;;;;;;6.05;5.50;;;11.00;99.90;;;;;;4932217;28;20237;-68
2021/11/02 15:59:42;;;;;;;8.02;5.40;;;11.00;99.90;;;;;;4916444;29;20206;-69
2021/11/02 16:02:09;;;;;;;6.10;5.47;;;11.00;99.90;;;;;;4922569;29;20640;-70
2021/11/02 16:04:37;;;;;;;8.82;8.02;;;11.00;99.90;;;;;;4932080;29;20293;-69
2021/11/02 16:07:06;;;;;;;8.75;7.97;;;11.00;99.90;;;;;;4931230;29;20687;-69
2021/11/02 16:09:51;;;;;;;5.50;5.30;;;10.90;99.90;;;;;;4921143;29;20214;-70
2021/11/02 16:12:23;;;;;;;6.00;5.60;;;10.90;99.90;;;;;;4920335;29;20717;-70
2021/11/02 16:14:56;;;;;;;6.25;5.95;;;10.90;99.90;;;;;;4934104;29;20583;-71
2021/11/02 16:17:24;;;;;;;6.43;5.93;;;10.90;99.90;;;;;;4927104;29;20206;-71
2021/11/02 16:19:55;;;;;;;5.97;5.57;;;10.90;99.90;;;;;;4931053;29;20675;-71
2021/11/02 16:22:22;;;;;;;6.57;6.07;;;10.90;99.90;;;;;;4923315;29;20254;-70
2021/11/02 16:25:05;;;;;;;6.78;6.15;;;10.90;99.90;;;;;;4925661;28;20251;-70
2021/11/02 16:27:33;;;;;;;7.68;7.00;;;10.90;99.90;;;;;;4935382;29;20211;-70
2021/11/02 16:30:00;;;;;;;8.77;6.57;;;10.90;99.90;;;;;;4926636;29;21917;-71
2021/11/02 16:32:28;;;;;;;6.68;6.18;;;10.80;99.90;;;;;;4924311;29;20733;-70
2021/11/02 16:34:57;;;;;;;6.10;5.57;;;10.90;99.90;;;;;;4922333;29;20620;-72
2021/11/02 16:37:36;;;;;;;5.75;4.70;;;10.80;99.90;;;;;;4940011;29;20210;-71
2021/11/02 16:40:26;;;;;;;5.43;4.93;;;10.80;99.90;;;;;;4925875;29;20648;-70
2021/11/02 16:42:56;;;;;;;6.35;4.93;;;10.80;99.90;;;;;;4928609;29;20213;-71
2021/11/02 16:45:24;;;;;;;6.13;5.10;;;10.80;99.90;;;;;;4926643;29;20245;-71
2021/11/02 16:47:56;;;;;;;5.70;5.20;;;10.80;99.90;;;;;;4942310;29;20217;-71
2021/11/02 16:50:32;;;;;;;6.13;4.80;;;10.80;99.90;;;;;;4933437;29;20213;-71
2021/11/02 16:53:12;;;;;;;6.47;5.15;;;10.70;99.90;;;;;;4935907;28;20242;-71
2021/11/02 16:55:41;;;;;;;6.40;5.40;;;10.70;99.90;;;;;;4938835;29;20212;-72
2021/11/02 16:58:24;;;;;;;7.82;6.45;;;10.70;99.90;;;;;;4939533;28;20205;-71
2021/11/02 17:01:09;;;;;;;7.10;6.53;;;10.70;99.90;;;;;;4920744;29;20241;-72
2021/11/02 17:03:37;;;;;;;7.57;6.88;;;10.70;99.90;;;;;;4932630;29;20198;-71
2021/11/02 17:06:12;;;;;;;6.93;6.40;;;10.60;99.90;;;;;;4933559;28;20676;-71
2021/11/02 17:08:47;;;;;;;7.57;6.88;;;10.60;99.90;;;;;;4918866;29;20274;-71
2021/11/02 17:11:21;;;;;;;8.30;6.90;;;10.60;99.90;;;;;;4927108;29;20229;-70
2021/11/02 17:13:49;;;;;;;9.50;8.80;;;10.60;99.90;;;;;;4919034;29;20321;-71
2021/11/02 17:16:18;;;;;;;10.45;9.20;;;10.50;99.90;;;;;;4917126;29;20252;-70
2021/11/02 17:18:51;;;;;;;8.50;7.82;;;10.50;99.90;;;;;;4915455;29;20247;-71
2021/11/02 17:21:22;;;;;;;8.80;8.10;;;10.50;99.90;;;;;;4928190;29;20287;-70
2021/11/02 17:23:49;;;;;;;17.42;10.98;;;10.50;99.90;;;;;;4926954;28;20359;-71
2021/11/02 17:26:17;;;;;;;7.43;6.82;;;10.40;99.90;;;;;;4927777;29;20237;-71
2021/11/02 17:28:47;;;;;;;8.00;7.22;;;10.40;99.90;;;;;;4928841;29;20281;-69
2021/11/02 17:33:50;;;;;;;7.88;7.20;;;10.40;99.90;;;;;;4930761;29;20251;-74
2021/11/02 17:36:18;;;;;;;11.70;8.68;;;10.40;99.90;;;;;;4943585;29;20213;-73
2021/11/02 17:38:48;;;;;;;26.05;17.98;;;10.30;99.90;;;;;;4923134;29;20596;-73
2021/11/02 17:41:15;;;;;;;23.98;16.30;;;10.40;99.90;;;;;;4942509;29;20214;-74
2021/11/02 17:43:44;;;;;;;24.83;18.50;;;10.30;99.90;;;;;;4925118;29;20210;-74
2021/11/02 17:46:12;;;;;;;24.80;16.60;;;10.30;99.90;;;;;;4927376;29;20221;-73
2021/11/02 17:48:39;;;;;;;12.02;8.07;;;10.30;99.90;;;;;;4921048;29;20289;-73
2021/11/02 17:51:07;;;;;;;15.77;13.60;;;10.30;99.90;;;;;;4912237;29;20226;-73
2021/11/02 17:53:36;;;;;;;25.77;23.00;;;10.30;99.90;;;;;;4912265;29;20254;-73
2021/11/02 17:56:08;;;;;;;12.23;11.10;;;10.30;99.90;;;;;;4915007;29;20206;-74
2021/11/02 17:58:38;;;;;;;10.23;9.43;;;10.30;99.90;;;;;;4924269;29;20659;-74
2021/11/02 18:01:06;;;;;;;14.32;12.52;;;10.30;99.90;;;;;;4914476;29;20203;-73
2021/11/02 18:03:36;;;;;;;12.32;11.32;;;10.30;99.90;;;;;;4909045;29;20223;-73
2021/11/02 18:06:05;;;;;;;9.88;8.90;;;10.30;99.90;;;;;;4916615;29;20568;-73
2021/11/02 18:08:32;;;;;;;7.90;7.30;;;10.30;99.90;;;;;;4917300;29;20237;-73
2021/11/02 18:10:59;;;;;;;9.45;6.75;;;10.30;99.90;;;;;;4915327;29;20226;-73
2021/11/02 18:13:29;;;;;;;11.85;8.32;;;10.30;99.90;;;;;;4905816;29;20253;-73
2021/11/02 18:15:58;;;;;;;9.50;8.65;;;10.30;99.90;;;;;;4920410;29;20695;-73
2021/11/02 18:18:28;;;;;;;9.55;8.75;;;10.30;99.90;;;;;;4907561;29;20608;-73
2021/11/02 18:20:56;;;;;;;12.65;10.07;;;10.30;99.90;;;;;;4922825;29;20261;-73
2021/11/02 18:23:23;;;;;;;10.50;9.23;;;10.20;99.90;;;;;;4915137;29;20591;-73
2021/11/02 18:25:50;;;;;;;10.38;9.40;;;10.30;99.90;;;;;;4919828;29;20212;-73
2021/11/02 18:28:17;;;;;;;11.10;10.10;;;10.20;99.90;;;;;;4916148;29;20743;-72
2021/11/02 18:30:46;;;;;;;31.50;22.20;;;10.30;99.90;;;;;;4907287;29;20623;-72
2021/11/02 18:33:13;;;;;;;30.77;20.88;;;10.30;99.90;;;;;;4918148;29;20231;-72
2021/11/02 18:35:40;;;;;;;23.33;17.95;;;10.20;99.90;;;;;;4905118;29;20228;-74
2021/11/02 18:38:08;;;;;;;13.93;12.63;;;10.20;99.90;;;;;;4909381;29;20214;-72
2021/11/02 18:40:36;;;;;;;12.60;11.48;;;10.20;99.90;;;;;;4917121;29;20213;-72
2021/11/02 18:43:03;;;;;;;13.38;11.98;;;10.20;99.90;;;;;;4920431;29;20771;-74
2021/11/02 18:45:30;;;;;;;11.05;10.00;;;10.20;99.90;;;;;;4934323;29;20206;-74
2021/11/02 18:48:00;;;;;;;12.20;11.00;;;10.20;99.90;;;;;;4916987;29;20559;-72
2021/11/02 18:50:32;;;;;;;12.32;11.32;;;10.20;99.90;;;;;;4925008;29;20208;-72
2021/11/02 18:52:59;;;;;;;13.73;12.43;;;10.20;99.90;;;;;;4908928;29;20602;-73
2021/11/02 18:55:27;;;;;;;16.00;12.10;;;10.20;99.90;;;;;;4917839;29;20206;-73
2021/11/02 18:57:54;;;;;;;12.43;11.43;;;10.10;99.90;;;;;;4916399;29;20210;-72
2021/11/02 19:00:22;;;;;;;12.05;10.95;;;10.20;99.90;;;;;;4916159;29;20740;-73
2021/11/02 19:02:49;;;;;;;13.23;11.82;;;10.20;99.90;;;;;;4914355;29;20237;-73
2021/11/02 19:05:17;;;;;;;12.63;10.98;;;10.10;99.90;;;;;;4919829;29;20237;-73
2021/11/02 19:07:44;;;;;;;12.95;11.45;;;10.10;99.90;;;;;;4923169;29;20206;-73
2021/11/02 19:10:11;;;;;;;11.52;10.32;;;10.10;99.90;;;;;;4915592;29;20215;-75
2021/11/02 19:12:39;;;;;;;11.73;10.73;;;10.10;99.90;;;;;;4921827;29;20792;-73
2021/11/02 19:15:07;;;;;;;12.50;11.40;;;10.10;99.90;;;;;;4909617;29;20219;-74
2021/11/02 19:17:34;;;;;;;12.68;11.57;;;10.10;99.90;;;;;;4906667;29;20224;-75
2021/11/02 19:20:01;;;;;;;12.40;11.32;;;10.10;99.90;;;;;;4918860;29;20214;-73
2021/11/02 19:22:29;;;;;;;11.23;10.32;;;10.10;99.90;;;;;;4916599;29;20239;-73
2021/11/02 19:24:55;;;;;;;12.23;11.05;;;10.10;99.90;;;;;;4916498;29;20574;-73
2021/11/02 19:27:22;;;;;;;13.50;11.95;;;10.10;99.90;;;;;;4909481;29;20199;-72
2021/11/02 19:29:52;;;;;;;11.00;10.02;;;10.10;99.90;;;;;;4899323;29;20630;-72
2021/11/02 19:32:19;;;;;;;13.15;10.18;;;10.10;99.90;;;;;;4909392;29;20249;-73
2021/11/02 19:34:46;;;;;;;10.15;9.25;;;10.00;99.90;;;;;;4921476;29;20253;-74
2021/11/02 19:37:12;;;;;;;10.50;9.50;;;10.10;99.90;;;;;;4915137;29;20230;-74
2021/11/02 19:39:41;;;;;;;10.00;9.07;;;10.10;99.90;;;;;;4913148;29;20529;-74
2021/11/02 19:42:07;;;;;;;10.48;9.02;;;10.10;99.90;;;;;;4911612;29;20286;-75
2021/11/02 19:44:35;;;;;;;9.07;8.20;;;10.00;99.90;;;;;;4923992;29;20202;-75
2021/11/02 19:47:02;;;;;;;10.18;8.95;;;10.00;99.90;;;;;;4924600;29;20267;-74
2021/11/02 19:49:29;;;;;;;9.50;8.70;;;10.00;99.90;;;;;;4926589;29;20214;-74
2021/11/02 19:51:57;;;;;;;10.23;8.48;;;10.00;99.90;;;;;;4931049;29;20261;-75
2021/11/02 19:54:24;;;;;;;8.35;7.65;;;10.00;99.90;;;;;;4916863;29;20219;-75
2021/11/02 19:56:52;;;;;;;8.90;8.10;;;10.00;99.90;;;;;;4913517;29;20217;-74
2021/11/02 19:59:19;;;;;;;9.38;8.45;;;10.00;99.90;;;;;;4916466;29;20290;-73
2021/11/02 20:01:46;;;;;;;9.05;8.35;;;9.90;99.90;;;;;;4916816;29;20234;-73
2021/11/02 20:04:14;;;;;;;9.23;8.40;;;9.90;99.90;;;;;;4897609;29;20208;-73
2021/11/02 20:06:43;;;;;;;11.32;9.65;;;9.90;99.90;;;;;;4897884;29;20572;-73
2021/11/02 20:09:15;;;;;;;10.98;10.07;;;9.90;99.90;;;;;;4915484;29;20308;-72
2021/11/02 20:11:46;;;;;;;11.65;10.43;;;9.90;99.90;;;;;;4901397;29;20235;-72
2021/11/02 20:14:19;;;;;;;16.13;14.05;;;9.90;99.90;;;;;;4897836;29;20227;-72
2021/11/02 20:16:52;;;;;;;14.55;10.93;;;9.90;99.90;;;;;;4906996;29;20216;-73
2021/11/02 20:19:19;;;;;;;16.58;14.88;;;9.90;99.90;;;;;;4913523;29;20285;-73
2021/11/02 20:21:47;;;;;;;18.92;17.10;;;9.90;99.90;;;;;;4906324;29;20228;-72
2021/11/02 20:24:14;;;;;;;39.83;32.38;;;9.90;99.90;;;;;;4897319;29;20302;-73
2021/11/02 20:26:41;;;;;;;22.08;16.63;;;9.90;99.90;;;;;;4897265;29;20333;-74
2021/11/02 20:29:09;;;;;;;11.45;10.45;;;9.90;99.90;;;;;;4896974;29;20254;-73
2021/11/02 20:31:39;;;;;;;11.68;10.57;;;9.90;99.90;;;;;;4908182;29;20420;-73
2021/11/02 20:34:06;;;;;;;11.20;10.20;;;9.90;99.90;;;;;;4896967;29;20242;-73
2021/11/02 20:36:39;;;;;;;11.88;8.43;;;9.90;99.90;;;;;;4903679;29;20298;-74
2021/11/02 20:39:07;;;;;;;10.82;8.85;;;9.80;99.90;;;;;;4914765;29;20210;-74
2021/11/02 20:41:37;;;;;;;11.95;10.85;;;9.90;99.90;;;;;;4913724;29;20270;-74
2021/11/02 20:44:08;;;;;;;10.77;9.77;;;9.80;99.90;;;;;;4915279;29;20210;-74
2021/11/02 20:46:41;;;;;;;9.48;8.60;;;9.80;99.90;;;;;;4919276;29;20206;-74
2021/11/02 20:49:12;;;;;;;10.98;9.88;;;9.80;99.90;;;;;;4917155;29;20215;-73
2021/11/02 20:51:39;;;;;;;10.43;9.40;;;9.80;99.90;;;;;;4900141;29;20231;-73
2021/11/02 20:54:06;;;;;;;11.13;10.20;;;9.80;99.90;;;;;;4900192;29;20234;-74
2021/11/02 20:56:36;;;;;;;10.75;9.80;;;9.70;99.90;;;;;;4896784;29;20211;-73
2021/11/02 20:59:04;;;;;;;13.35;11.02;;;9.70;99.90;;;;;;4896301;29;20317;-72
2021/11/02 21:01:32;;;;;;;14.50;10.95;;;9.70;99.90;;;;;;4908128;29;20238;-73
2021/11/02 21:04:01;;;;;;;12.82;11.73;;;9.60;99.90;;;;;;4914936;29;20720;-72
2021/11/02 21:06:29;;;;;;;13.73;12.10;;;9.60;99.90;;;;;;4902725;29;20219;-72